createdAt,value
2022-11-02T04:35:05.297Z,15.30
2022-11-02T04:40:24.567Z,15.27
2022-11-02T04:45:31.139Z,15.00
2022-11-02T04:50:44.030Z,13.63
2022-11-02T04:55:53.207Z,13.57
2022-11-02T05:01:01.323Z,13.40
2022-11-02T05:07:01.652Z,13.37
2022-11-02T05:23:31.207Z,12.37
2022-11-02T05:28:47.778Z,12.43
2022-11-02T07:23:53.001Z,7.43
2022-11-02T07:46:34.780Z,6.33
2022-11-02T07:52:21.296Z,6.87
2022-11-02T09:27:18.396Z,7.23
2022-11-02T09:38:34.098Z,7.17
2022-11-02T09:52:23.030Z,7.27
2022-11-02T10:14:47.861Z,5.80
2022-11-02T10:20:45.875Z,5.97
2022-11-02T10:25:53.433Z,5.77
2022-11-02T10:36:25.129Z,4.70
2022-11-02T10:42:03.877Z,6.17
2022-11-02T10:47:28.652Z,5.57
2022-11-02T11:41:04.128Z,4.27
2022-11-02T11:46:17.073Z,3.40
2022-11-02T11:51:31.243Z,3.80
2022-11-02T11:56:37.110Z,3.13
2022-11-02T12:01:42.526Z,4.17
2022-11-02T12:06:50.929Z,3.97
2022-11-02T12:12:17.268Z,3.80
2022-11-02T12:17:43.489Z,2.70
2022-11-02T12:23:11.262Z,3.30
2022-11-02T12:28:22.206Z,4.37
2022-11-02T12:33:39.682Z,4.00
2022-11-02T12:39:12.151Z,3.57
2022-11-02T12:44:27.358Z,3.40
2022-11-02T12:49:36.312Z,3.30
2022-11-02T12:54:45.225Z,3.13
2022-11-02T12:59:55.065Z,3.00
2022-11-02T13:05:03.313Z,3.23
2022-11-02T13:10:23.576Z,2.63
2022-11-02T13:15:31.240Z,2.77
2022-11-02T13:20:39.473Z,1.77
2022-11-02T13:25:47.669Z,2.10
2022-11-02T13:30:54.623Z,1.97
2022-11-02T13:35:59.807Z,1.97
2022-11-02T13:41:27.331Z,2.30
2022-11-02T13:46:57.755Z,1.80
2022-11-02T13:52:15.081Z,2.37
2022-11-02T13:57:44.705Z,1.73
2022-11-02T14:03:06.494Z,1.43
2022-11-02T14:08:14.483Z,1.47
2022-11-02T14:13:22.689Z,1.07
2022-11-02T14:18:31.685Z,1.17
2022-11-02T14:23:38.806Z,3.00
2022-11-02T14:29:05.057Z,2.00
2022-11-02T14:34:25.292Z,1.47
2022-11-02T14:39:42.735Z,1.50
2022-11-02T14:45:02.942Z,1.70
2022-11-02T14:50:17.106Z,1.53
2022-11-02T14:55:28.547Z,2.10
2022-11-02T15:00:51.725Z,1.50
2022-11-02T15:06:09.034Z,1.33
2022-11-02T15:11:50.203Z,1.63
2022-11-02T15:16:58.809Z,1.80
2022-11-02T15:22:34.980Z,1.93
2022-11-02T15:27:45.894Z,2.23
2022-11-02T15:33:02.222Z,1.90
2022-11-02T15:38:17.633Z,2.07
2022-11-02T15:43:26.262Z,2.20
2022-11-02T15:48:50.788Z,1.97
2022-11-02T15:54:12.888Z,1.77
2022-11-02T15:59:33.318Z,2.17
2022-11-02T16:04:43.812Z,2.30
2022-11-02T16:09:50.611Z,1.70
2022-11-02T16:15:05.387Z,1.33
2022-11-02T16:20:13.963Z,2.13
2022-11-02T16:25:22.502Z,1.93
2022-11-02T16:30:28.179Z,2.53
2022-11-02T16:35:34.220Z,2.73
2022-11-02T16:40:39.702Z,3.83
2022-11-02T16:45:46.493Z,2.80
2022-11-02T16:51:14.457Z,2.83
2022-11-02T16:56:32.832Z,2.63
2022-11-02T17:01:40.923Z,2.70
2022-11-02T17:06:49.170Z,2.87
2022-11-02T17:11:57.709Z,2.97
2022-11-02T17:17:08.636Z,2.80
2022-11-02T17:22:19.825Z,2.10
2022-11-02T17:27:29.030Z,2.57
2022-11-02T17:32:34.294Z,2.10
2022-11-02T17:37:42.523Z,2.27
2022-11-02T17:43:02.646Z,1.90
2022-11-02T17:48:11.367Z,2.07
2022-11-02T17:53:16.665Z,1.20
2022-11-02T17:58:22.633Z,1.53
2022-11-02T18:03:31.144Z,1.50
2022-11-02T18:08:37.008Z,1.60
2022-11-02T18:13:42.185Z,1.93
2022-11-02T18:18:47.582Z,2.27
2022-11-02T18:23:53.018Z,1.90
2022-11-02T18:28:58.276Z,1.97
2022-11-02T18:34:06.109Z,1.50
2022-11-02T18:44:51.950Z,2.47
2022-11-02T18:50:02.508Z,2.57
2022-11-02T18:55:21.249Z,1.87
2022-11-02T19:00:26.065Z,2.10
2022-11-02T19:05:35.139Z,9.43
2022-11-02T19:10:42.019Z,10.20
2022-11-02T19:15:47.185Z,5.77
2022-11-02T19:20:52.415Z,6.27
2022-11-02T19:25:57.651Z,7.13
2022-11-02T19:31:08.565Z,2.93
2022-11-02T19:36:18.911Z,3.00
2022-11-02T19:41:43.607Z,3.13
2022-11-02T19:47:07.655Z,2.30
2022-11-02T19:58:01.055Z,2.53
2022-11-02T20:03:32.405Z,2.73
2022-11-02T20:14:44.107Z,2.73
2022-11-02T20:20:07.115Z,2.17
2022-11-02T20:25:38.570Z,1.53
2022-11-02T20:31:13.870Z,2.40
2022-11-02T20:36:28.810Z,1.50
2022-11-02T20:42:06.448Z,1.83
2022-11-02T20:47:47.611Z,2.10
2022-11-02T20:53:04.493Z,1.90
2022-11-02T20:58:29.861Z,1.63
2022-11-02T21:04:07.831Z,1.37
2022-11-02T21:15:19.061Z,1.40
2022-11-02T21:26:24.812Z,1.03
2022-11-02T21:31:57.436Z,1.60
2022-11-02T21:37:36.038Z,0.97
2022-11-02T21:43:00.753Z,1.60
2022-11-02T21:48:12.907Z,1.50
2022-11-02T21:53:27.459Z,1.37
2022-11-02T21:58:45.952Z,0.80
2022-11-02T22:15:38.546Z,1.87
2022-11-02T22:21:08.756Z,1.70
2022-11-02T22:26:40.743Z,1.40
2022-11-02T22:31:53.808Z,2.13
2022-11-02T22:37:41.871Z,1.43
2022-11-02T22:43:00.170Z,1.10
2022-11-02T22:48:13.789Z,1.63
2022-11-02T22:53:33.678Z,0.97
2022-11-02T22:58:41.177Z,1.07
2022-11-02T23:04:04.333Z,1.07
2022-11-02T23:09:43.676Z,1.30
2022-11-02T23:15:03.199Z,1.17
2022-11-02T23:20:20.087Z,1.03
2022-11-02T23:25:31.667Z,0.90
2022-11-02T23:31:09.331Z,1.10
2022-11-02T23:36:40.057Z,1.23
2022-11-02T23:41:49.331Z,1.97
2022-11-02T23:47:05.421Z,0.90
2022-11-02T23:52:38.364Z,1.10
2022-11-02T23:58:07.539Z,1.07
